createdAt,value
2023-01-17T00:02:28.647Z,97309.06
2023-01-17T00:05:16.840Z,97308.91
2023-01-17T00:08:03.040Z,97318.19
2023-01-17T00:10:31.975Z,97306.75
2023-01-17T00:13:02.275Z,97314.09
2023-01-17T00:15:32.575Z,97318.47
2023-01-17T00:18:01.295Z,97317.88
2023-01-17T00:21:05.683Z,97318.56
2023-01-17T00:23:51.749Z,97315.03
2023-01-17T00:26:21.303Z,97314.84
2023-01-17T00:28:49.275Z,97303.91
2023-01-17T00:31:17.524Z,97298.19
2023-01-17T00:33:44.896Z,97306.84
2023-01-17T00:36:14.349Z,97299.81
2023-01-17T00:38:42.084Z,97288.66
2023-01-17T00:41:11.644Z,97296.97
2023-01-17T00:43:57.996Z,97294.03
2023-01-17T00:46:44.251Z,97306.06
2023-01-17T00:49:30.287Z,97316.69
2023-01-17T00:52:18.289Z,97320.19
2023-01-17T00:55:03.950Z,97309.31
2023-01-17T00:57:50.010Z,97313.00
2023-01-17T01:00:37.113Z,97311.25
2023-01-17T01:03:27.602Z,97314.06
2023-01-17T01:06:13.556Z,97310.53
2023-01-17T01:09:01.029Z,97303.81
2023-01-17T01:11:47.101Z,97315.78
2023-01-17T01:14:33.756Z,97316.72
2023-01-17T01:17:19.666Z,97299.97
2023-01-17T01:20:05.708Z,97311.16
2023-01-17T01:22:52.014Z,97299.59
2023-01-17T01:25:39.777Z,97302.75
2023-01-17T01:28:29.107Z,97307.69
2023-01-17T01:31:17.748Z,97296.28
2023-01-17T01:33:46.264Z,97298.66
2023-01-17T01:36:15.353Z,97291.94
2023-01-17T01:38:44.087Z,97290.03
2023-01-17T01:41:14.266Z,97294.44
2023-01-17T01:43:47.333Z,97292.59
2023-01-17T01:46:19.585Z,97297.22
2023-01-17T01:48:53.615Z,97281.16
2023-01-17T01:51:27.009Z,97281.88
2023-01-17T01:54:00.199Z,97273.69
2023-01-17T01:56:32.061Z,97284.09
2023-01-17T01:59:04.241Z,97295.16
2023-01-17T02:01:37.539Z,97289.81
2023-01-17T02:04:09.987Z,97289.22
2023-01-17T02:06:40.942Z,97290.13
2023-01-17T02:09:12.258Z,97287.88
2023-01-17T02:11:43.210Z,97297.41
2023-01-17T02:14:16.820Z,97298.81
2023-01-17T02:17:03.231Z,97276.31
2023-01-17T02:20:04.952Z,97298.59
2023-01-17T02:23:05.157Z,97296.97
2023-01-17T02:25:57.527Z,97302.03
2023-01-17T02:28:47.693Z,97307.81
2023-01-17T02:31:23.202Z,97307.03
2023-01-17T02:34:00.022Z,97299.13
2023-01-17T02:36:34.267Z,97288.78
2023-01-17T02:39:09.877Z,97275.03
2023-01-17T02:41:42.520Z,97267.44
2023-01-17T02:44:16.571Z,97272.63
2023-01-17T02:46:48.570Z,97268.47
2023-01-17T02:49:20.507Z,97263.47
2023-01-17T02:52:05.812Z,97256.69
2023-01-17T02:55:06.679Z,97278.72
2023-01-17T02:57:59.511Z,97285.13
2023-01-17T03:00:36.961Z,97289.97
2023-01-17T03:03:15.233Z,97293.66
2023-01-17T03:05:48.724Z,97289.59
2023-01-17T03:08:18.468Z,97282.28
2023-01-17T03:10:47.714Z,97277.00
2023-01-17T03:13:16.348Z,97294.09
2023-01-17T03:15:45.325Z,97286.63
2023-01-17T03:18:17.186Z,97290.94
2023-01-17T03:20:45.971Z,97289.84
2023-01-17T03:23:14.514Z,97290.06
2023-01-17T03:25:43.350Z,97289.72
2023-01-17T03:28:11.948Z,97281.25
2023-01-17T03:30:40.815Z,97286.31
2023-01-17T03:33:09.546Z,97297.28
2023-01-17T03:35:39.917Z,97307.72
2023-01-17T03:38:08.525Z,97315.13
2023-01-17T03:40:37.321Z,97319.25
2023-01-17T03:43:05.883Z,97335.94
2023-01-17T03:45:34.691Z,97346.31
2023-01-17T03:48:03.272Z,97355.41
2023-01-17T03:50:32.089Z,97366.31
2023-01-17T03:53:02.072Z,97374.81
2023-01-17T03:55:30.827Z,97368.84
2023-01-17T03:57:59.375Z,97387.84
2023-01-17T04:00:28.145Z,97401.66
2023-01-17T04:02:56.773Z,97406.78
2023-01-17T04:05:25.640Z,97420.88
2023-01-17T04:07:54.217Z,97421.84
2023-01-17T04:10:24.436Z,97417.78
2023-01-17T04:12:52.973Z,97438.75
2023-01-17T04:15:21.816Z,97441.81
2023-01-17T04:17:50.556Z,97450.75
2023-01-17T04:20:34.029Z,97446.69
2023-01-17T04:23:03.278Z,97445.47
2023-01-17T04:25:33.923Z,97436.59
2023-01-17T04:28:03.562Z,97439.34
2023-01-17T04:30:33.088Z,97430.00
2023-01-17T04:33:01.706Z,97429.19
2023-01-17T04:35:31.440Z,97431.03
2023-01-17T04:37:59.948Z,97428.22
2023-01-17T04:40:29.654Z,97446.63
2023-01-17T04:42:59.845Z,97431.97
2023-01-17T04:45:28.795Z,97451.91
2023-01-17T04:47:57.432Z,97457.03
2023-01-17T04:50:26.196Z,97452.19
2023-01-17T04:52:54.769Z,97462.16
2023-01-17T04:55:23.755Z,97462.25
2023-01-17T04:57:52.233Z,97473.00
2023-01-17T05:00:24.235Z,97464.56
2023-01-17T05:02:53.083Z,97462.94
2023-01-17T05:05:22.118Z,97466.78
2023-01-17T05:07:57.300Z,97478.63
2023-01-17T05:10:26.797Z,97473.06
2023-01-17T05:12:56.189Z,97477.38
2023-01-17T05:15:27.777Z,97480.13
2023-01-17T05:17:56.880Z,97483.25
2023-01-17T05:20:27.558Z,97492.75
2023-01-17T05:22:57.655Z,97486.06
2023-01-17T05:25:28.507Z,97501.44
2023-01-17T05:27:57.090Z,97496.81
2023-01-17T05:30:28.334Z,97487.78
2023-01-17T05:32:58.628Z,97491.41
2023-01-17T05:35:30.221Z,97481.69
2023-01-17T05:37:58.760Z,97468.94
2023-01-17T05:40:30.867Z,97477.47
2023-01-17T05:43:01.675Z,97488.75
2023-01-17T05:45:33.600Z,97488.56
2023-01-17T05:48:03.035Z,97489.59
2023-01-17T05:50:34.148Z,97505.09
2023-01-17T05:53:05.491Z,97522.81
2023-01-17T05:55:34.961Z,97519.53
2023-01-17T05:58:04.389Z,97518.75
2023-01-17T06:00:34.895Z,97526.69
2023-01-17T06:03:03.514Z,97529.59
2023-01-17T06:05:33.058Z,97525.38
2023-01-17T06:08:01.702Z,97513.91
2023-01-17T06:10:30.787Z,97509.28
2023-01-17T06:13:03.976Z,97523.22
2023-01-17T06:15:35.584Z,97514.19
2023-01-17T06:18:08.335Z,97511.13
2023-01-17T06:20:37.821Z,97507.38
2023-01-17T06:23:08.042Z,97491.75
2023-01-17T06:25:39.151Z,97490.97
2023-01-17T06:28:08.400Z,97489.53
2023-01-17T06:30:38.860Z,97492.41
2023-01-17T06:33:07.776Z,97503.44
2023-01-17T06:35:37.726Z,97510.06
2023-01-17T06:38:06.252Z,97507.53
2023-01-17T06:40:35.137Z,97530.88
2023-01-17T06:43:04.328Z,97532.47
2023-01-17T06:45:35.976Z,97532.84
2023-01-17T06:48:06.833Z,97536.50
2023-01-17T06:50:35.747Z,97532.84
2023-01-17T06:53:06.505Z,97540.28
2023-01-17T06:55:35.973Z,97547.41
2023-01-17T06:58:04.529Z,97550.41
2023-01-17T07:00:35.232Z,97555.13
2023-01-17T07:03:05.525Z,97565.38
2023-01-17T07:05:36.364Z,97577.25
2023-01-17T07:08:05.282Z,97591.88
2023-01-17T07:10:34.097Z,97580.34
2023-01-17T07:13:02.574Z,97581.25
2023-01-17T07:15:31.383Z,97588.66
2023-01-17T07:18:02.693Z,97593.84
2023-01-17T07:20:33.950Z,97589.78
2023-01-17T07:23:02.478Z,97592.94
2023-01-17T07:25:31.349Z,97596.47
2023-01-17T07:28:00.021Z,97600.53
2023-01-17T07:30:29.144Z,97596.19
2023-01-17T07:32:57.702Z,97615.97
2023-01-17T07:35:27.285Z,97615.69
2023-01-17T07:37:57.200Z,97634.44
2023-01-17T07:40:27.297Z,97657.13
2023-01-17T07:43:02.331Z,97674.91
2023-01-17T07:45:33.420Z,97681.22
2023-01-17T07:48:01.958Z,97689.84
2023-01-17T07:50:30.785Z,97685.84
2023-01-17T07:53:00.760Z,97675.81
2023-01-17T07:55:30.045Z,97678.88
2023-01-17T07:57:58.543Z,97683.78
2023-01-17T08:00:27.738Z,97689.19
2023-01-17T08:03:01.166Z,97693.78
2023-01-17T08:05:30.804Z,97696.59
2023-01-17T08:08:00.677Z,97704.31
2023-01-17T08:10:29.546Z,97698.59
2023-01-17T08:12:58.042Z,97698.03
2023-01-17T08:15:26.995Z,97698.38
2023-01-17T08:17:57.695Z,97686.09
2023-01-17T08:20:28.212Z,97677.56
2023-01-17T08:22:57.851Z,97678.97
2023-01-17T08:25:28.748Z,97692.88
2023-01-17T08:27:58.846Z,97691.19
2023-01-17T08:30:27.917Z,97700.22
2023-01-17T08:32:57.939Z,97693.16
2023-01-17T08:35:27.976Z,97688.72
2023-01-17T08:37:57.759Z,97669.47
2023-01-17T08:40:27.992Z,97644.03
2023-01-17T08:42:57.418Z,97636.09
2023-01-17T08:45:26.448Z,97627.72
2023-01-17T08:47:55.104Z,97616.25
2023-01-17T08:50:25.044Z,97601.84
2023-01-17T08:53:01.071Z,97605.19
2023-01-17T08:55:31.632Z,97615.91
2023-01-17T08:58:00.475Z,97602.44
2023-01-17T09:00:29.962Z,97600.22
2023-01-17T09:02:59.494Z,97600.72
2023-01-17T09:05:28.686Z,97596.06
2023-01-17T09:07:57.549Z,97588.97
2023-01-17T09:10:27.198Z,97596.25
2023-01-17T09:12:57.167Z,97606.38
2023-01-17T09:15:26.143Z,97614.97
2023-01-17T09:17:56.812Z,97617.94
2023-01-17T09:20:30.113Z,97617.75
2023-01-17T09:22:59.041Z,97615.81
2023-01-17T09:25:28.212Z,97617.16
2023-01-17T09:27:58.765Z,97622.34
2023-01-17T09:30:27.824Z,97620.34
2023-01-17T09:32:56.701Z,97623.03
2023-01-17T09:35:25.523Z,97622.59
2023-01-17T09:37:55.808Z,97621.66
2023-01-17T09:40:26.920Z,97611.28
2023-01-17T09:43:02.561Z,97602.97
2023-01-17T09:45:33.806Z,97596.38
2023-01-17T09:48:07.172Z,97591.44
2023-01-17T09:50:43.772Z,97586.78
2023-01-17T09:53:17.056Z,97585.22
2023-01-17T09:55:54.385Z,97579.25
2023-01-17T09:58:33.967Z,97570.13
2023-01-17T10:01:14.704Z,97563.22
2023-01-17T10:03:51.747Z,97568.56
2023-01-17T10:06:31.745Z,97584.47
2023-01-17T10:09:23.927Z,97585.25
2023-01-17T10:12:16.109Z,97585.41
2023-01-17T10:15:03.249Z,97581.94
2023-01-17T10:17:44.880Z,97575.91
2023-01-17T10:20:25.772Z,97565.44
2023-01-17T10:23:11.684Z,97546.59
2023-01-17T10:25:48.732Z,97541.91
2023-01-17T10:28:19.935Z,97525.94
2023-01-17T10:30:52.448Z,97518.69
2023-01-17T10:33:23.075Z,97532.13
2023-01-17T10:36:00.145Z,97525.91
2023-01-17T10:38:36.464Z,97513.34
2023-01-17T10:41:10.072Z,97506.44
2023-01-17T10:43:47.995Z,97499.59
2023-01-17T10:46:23.239Z,97497.44
2023-01-17T10:48:54.036Z,97498.94
2023-01-17T10:51:44.237Z,97501.59
2023-01-17T10:54:26.789Z,97509.03
2023-01-17T10:56:55.480Z,97496.00
2023-01-17T10:59:30.838Z,97494.66
2023-01-17T11:02:06.808Z,97488.72
2023-01-17T11:04:38.227Z,97489.97
2023-01-17T11:07:15.750Z,97470.06
2023-01-17T11:09:46.168Z,97470.38
2023-01-17T11:12:20.770Z,97466.81
2023-01-17T11:15:03.846Z,97450.53
2023-01-17T11:17:36.835Z,97453.81
2023-01-17T11:20:15.337Z,97437.63
2023-01-17T11:22:50.009Z,97445.66
2023-01-17T11:25:23.332Z,97433.22
2023-01-17T11:28:03.406Z,97425.00
2023-01-17T11:30:32.316Z,97423.72
2023-01-17T11:33:06.253Z,97414.47
2023-01-17T11:35:37.206Z,97411.66
2023-01-17T11:38:12.983Z,97409.50
2023-01-17T11:40:43.939Z,97400.72
2023-01-17T11:43:22.797Z,97400.06
2023-01-17T11:46:15.367Z,97404.53
2023-01-17T11:48:49.455Z,97396.47
2023-01-17T11:51:22.483Z,97400.50
2023-01-17T11:53:51.471Z,97388.06
2023-01-17T11:56:30.230Z,97380.66
2023-01-17T11:59:27.689Z,97370.47
2023-01-17T12:02:17.525Z,97367.84
2023-01-17T12:04:54.908Z,97352.63
2023-01-17T12:07:35.800Z,97329.91
2023-01-17T12:10:16.634Z,97319.91
2023-01-17T12:13:14.804Z,97333.81
2023-01-17T12:16:00.086Z,97327.78
2023-01-17T12:18:37.322Z,97313.28
2023-01-17T12:21:17.099Z,97316.13
2023-01-17T12:23:59.369Z,97316.22
2023-01-17T12:26:38.032Z,97301.13
2023-01-17T12:29:47.477Z,97304.28
2023-01-17T12:32:39.611Z,97296.00
2023-01-17T12:35:16.404Z,97293.38
2023-01-17T12:38:04.233Z,97290.53
2023-01-17T12:40:38.594Z,97284.53
2023-01-17T12:43:16.453Z,97268.38
2023-01-17T12:45:47.037Z,97283.97
2023-01-17T12:48:18.916Z,97275.72
2023-01-17T12:50:53.731Z,97266.69
2023-01-17T12:53:32.804Z,97255.72
2023-01-17T12:56:09.566Z,97250.53
2023-01-17T12:58:42.689Z,97252.03
2023-01-17T13:01:21.188Z,97244.69
2023-01-17T13:04:00.415Z,97232.97
2023-01-17T13:06:43.333Z,97232.41
2023-01-17T13:09:18.149Z,97222.81
2023-01-17T13:11:51.672Z,97228.47
2023-01-17T13:14:20.169Z,97221.03
2023-01-17T13:16:58.004Z,97208.91
2023-01-17T13:19:35.808Z,97206.13
2023-01-17T13:22:09.838Z,97190.03
2023-01-17T13:24:47.857Z,97193.06
2023-01-17T13:27:32.526Z,97187.88
2023-01-17T13:30:33.172Z,97187.00
2023-01-17T13:33:18.325Z,97169.00
2023-01-17T13:36:00.712Z,97167.84
2023-01-17T13:38:41.482Z,97161.66
2023-01-17T13:41:18.459Z,97153.06
2023-01-17T13:44:08.106Z,97150.13
2023-01-17T13:46:59.884Z,97143.75
2023-01-17T13:49:43.973Z,97150.00
2023-01-17T13:52:33.163Z,97133.78
2023-01-17T13:55:04.467Z,97134.53
2023-01-17T13:57:46.829Z,97116.88
2023-01-17T14:00:50.460Z,97104.81
2023-01-17T14:04:00.809Z,97090.19
2023-01-17T14:06:41.772Z,97078.91
2023-01-17T14:09:18.050Z,97085.75
2023-01-17T14:12:08.336Z,97090.41
2023-01-17T14:14:53.195Z,97094.13
2023-01-17T14:17:48.106Z,97073.41
2023-01-17T14:20:58.026Z,97071.53
2023-01-17T14:23:36.312Z,97061.13
2023-01-17T14:26:27.633Z,97053.31
2023-01-17T14:28:59.230Z,97034.75
2023-01-17T14:31:30.712Z,97031.91
2023-01-17T14:34:13.727Z,97021.50
2023-01-17T14:36:42.435Z,97016.69
2023-01-17T14:39:22.496Z,97022.94
2023-01-17T14:41:51.216Z,97025.94
2023-01-17T14:44:20.492Z,97019.41
2023-01-17T14:46:50.922Z,97022.91
2023-01-17T14:49:24.328Z,97019.72
2023-01-17T14:52:02.982Z,97012.25
2023-01-17T14:54:31.947Z,97004.38
2023-01-17T14:57:16.641Z,96994.81
2023-01-17T14:59:46.660Z,96992.06
2023-01-17T15:02:19.085Z,96992.53
2023-01-17T15:04:55.710Z,96989.34
2023-01-17T15:07:26.713Z,96994.28
2023-01-17T15:09:55.673Z,96984.53
2023-01-17T15:12:24.382Z,96990.34
2023-01-17T15:14:58.503Z,96990.28
2023-01-17T15:17:28.699Z,96990.94
2023-01-17T15:20:01.547Z,96978.31
2023-01-17T15:22:31.364Z,96975.88
2023-01-17T15:25:02.411Z,96971.16
2023-01-17T15:27:31.404Z,96966.47
2023-01-17T15:30:03.990Z,96965.91
2023-01-17T15:32:34.265Z,96942.25
2023-01-17T15:35:06.369Z,96941.84
2023-01-17T15:37:37.525Z,96929.78
2023-01-17T15:40:17.070Z,96935.22
2023-01-17T15:42:48.728Z,96938.28
2023-01-17T15:45:21.354Z,96939.34
2023-01-17T15:47:51.384Z,96928.28
2023-01-17T15:50:39.841Z,96921.28
2023-01-17T15:53:32.548Z,96912.66
2023-01-17T15:56:02.141Z,96911.47
2023-01-17T15:58:31.561Z,96912.28
2023-01-17T16:01:00.602Z,96899.56
2023-01-17T16:03:30.772Z,96904.84
2023-01-17T16:06:02.914Z,96904.56
2023-01-17T16:08:38.763Z,96896.66
2023-01-17T16:11:09.273Z,96901.84
2023-01-17T16:13:42.195Z,96895.44
2023-01-17T16:16:24.616Z,96902.94
2023-01-17T16:19:00.078Z,96906.84
2023-01-17T16:21:32.261Z,96912.00
2023-01-17T16:24:03.943Z,96906.94
2023-01-17T16:26:32.848Z,96894.88
2023-01-17T16:29:01.521Z,96887.19
2023-01-17T16:31:30.464Z,96889.19
2023-01-17T16:33:59.396Z,96887.41
2023-01-17T16:36:28.354Z,96872.34
2023-01-17T16:38:57.051Z,96879.63
2023-01-17T16:41:27.375Z,96882.63
2023-01-17T16:44:01.956Z,96869.56
2023-01-17T16:46:31.466Z,96876.28
2023-01-17T16:49:00.970Z,96858.50
2023-01-17T16:51:29.857Z,96848.69
2023-01-17T16:53:58.364Z,96852.25
2023-01-17T16:56:28.619Z,96855.00
2023-01-17T16:58:57.257Z,96848.38
2023-01-17T17:01:26.111Z,96847.31
2023-01-17T17:03:54.732Z,96847.53
2023-01-17T17:06:23.834Z,96839.63
2023-01-17T17:08:52.354Z,96828.00
2023-01-17T17:11:23.347Z,96822.03
2023-01-17T17:13:53.611Z,96818.84
2023-01-17T17:16:26.458Z,96814.13
2023-01-17T17:18:56.978Z,96816.84
2023-01-17T17:21:26.274Z,96808.66
2023-01-17T17:23:58.259Z,96804.31
2023-01-17T17:26:30.931Z,96798.81
2023-01-17T17:29:01.218Z,96796.72
2023-01-17T17:31:30.182Z,96785.03
2023-01-17T17:34:00.379Z,96790.41
2023-01-17T17:36:30.100Z,96772.97
2023-01-17T17:38:59.612Z,96767.09
2023-01-17T17:41:31.157Z,96790.50
2023-01-17T17:44:02.459Z,96788.56
2023-01-17T17:46:33.969Z,96788.84
2023-01-17T17:49:02.895Z,96786.09
2023-01-17T17:51:33.719Z,96780.16
2023-01-17T17:54:04.714Z,96779.09
2023-01-17T17:56:35.511Z,96774.38
2023-01-17T17:59:06.913Z,96778.97
2023-01-17T18:01:38.297Z,96763.34
2023-01-17T18:04:08.028Z,96746.16
2023-01-17T18:06:38.666Z,96746.31
2023-01-17T18:09:07.712Z,96755.88
2023-01-17T18:11:37.859Z,96748.47
2023-01-17T18:14:10.126Z,96744.50
2023-01-17T18:16:42.356Z,96731.94
2023-01-17T18:19:15.055Z,96749.00
2023-01-17T18:21:44.116Z,96724.88
2023-01-17T18:24:14.542Z,96726.91
2023-01-17T18:26:46.000Z,96731.69
2023-01-17T18:29:17.780Z,96731.34
2023-01-17T18:31:48.104Z,96749.41
2023-01-17T18:34:19.339Z,96742.22
2023-01-17T18:36:48.776Z,96750.56
2023-01-17T18:39:19.426Z,96748.16
2023-01-17T18:41:48.477Z,96750.44
2023-01-17T18:44:21.737Z,96744.19
2023-01-17T18:46:51.138Z,96746.81
2023-01-17T18:49:19.710Z,96738.50
2023-01-17T18:51:51.245Z,96740.75
2023-01-17T18:54:21.005Z,96739.47
2023-01-17T18:56:51.108Z,96746.75
2023-01-17T18:59:23.652Z,96738.97
2023-01-17T19:01:53.194Z,96735.03
2023-01-17T19:04:21.797Z,96736.50
2023-01-17T19:06:51.224Z,96738.56
2023-01-17T19:09:19.784Z,96749.09
2023-01-17T19:11:48.847Z,96732.63
2023-01-17T19:14:17.514Z,96739.69
2023-01-17T19:16:47.986Z,96745.63
2023-01-17T19:19:16.981Z,96736.09
2023-01-17T19:21:45.850Z,96744.66
2023-01-17T19:24:14.541Z,96731.72
2023-01-17T19:26:43.495Z,96739.59
2023-01-17T19:29:12.558Z,96727.25
2023-01-17T19:31:43.344Z,96730.38
2023-01-17T19:34:16.008Z,96733.16
2023-01-17T19:36:45.004Z,96735.44
2023-01-17T19:39:13.619Z,96742.97
2023-01-17T19:41:44.538Z,96739.28
2023-01-17T19:44:15.068Z,96738.59
2023-01-17T19:46:46.099Z,96738.47
2023-01-17T19:49:20.738Z,96724.25
2023-01-17T19:51:50.259Z,96720.25
2023-01-17T19:54:18.907Z,96724.84
2023-01-17T19:56:47.922Z,96708.69
2023-01-17T19:59:16.519Z,96711.69
2023-01-17T20:01:45.510Z,96709.56
2023-01-17T20:04:18.775Z,96715.06
2023-01-17T20:06:48.078Z,96724.06
2023-01-17T20:09:16.619Z,96735.94
2023-01-17T20:11:46.778Z,96742.91
2023-01-17T20:14:16.575Z,96745.88
2023-01-17T20:17:05.581Z,96742.91
2023-01-17T20:19:35.758Z,96737.84
2023-01-17T20:22:05.442Z,96741.47
2023-01-17T20:24:34.311Z,96764.59
2023-01-17T20:27:03.096Z,96756.94
2023-01-17T20:29:31.620Z,96765.06
2023-01-17T20:32:00.522Z,96775.88
2023-01-17T20:34:29.281Z,96771.44
2023-01-17T20:36:59.501Z,96770.34
2023-01-17T20:39:28.462Z,96779.34
2023-01-17T20:41:57.757Z,96782.13
2023-01-17T20:44:26.325Z,96781.38
2023-01-17T20:46:55.213Z,96788.25
2023-01-17T20:49:23.948Z,96787.78
2023-01-17T20:51:54.966Z,96802.38
2023-01-17T20:54:25.279Z,96805.53
2023-01-17T20:56:55.440Z,96792.94
2023-01-17T20:59:26.306Z,96802.53
2023-01-17T21:01:55.316Z,96801.72
2023-01-17T21:04:26.323Z,96814.66
2023-01-17T21:06:55.411Z,96804.47
2023-01-17T21:09:25.539Z,96814.09
2023-01-17T21:11:54.485Z,96814.59
2023-01-17T21:14:23.047Z,96818.69
2023-01-17T21:16:51.959Z,96819.84
2023-01-17T21:19:20.759Z,96814.00
2023-01-17T21:21:50.221Z,96825.91
2023-01-17T21:24:20.170Z,96815.91
2023-01-17T21:26:51.568Z,96821.66
2023-01-17T21:29:20.339Z,96821.75
2023-01-17T21:31:49.168Z,96818.88
2023-01-17T21:34:17.759Z,96815.06
2023-01-17T21:36:46.720Z,96822.72
2023-01-17T21:39:20.785Z,96817.88
2023-01-17T21:41:51.088Z,96823.44
2023-01-17T21:44:21.767Z,96821.63
2023-01-17T21:46:56.005Z,96829.66
2023-01-17T21:49:25.502Z,96839.75
2023-01-17T21:52:12.181Z,96835.09
2023-01-17T21:54:58.430Z,96840.75
2023-01-17T21:57:46.293Z,96842.47
2023-01-17T22:00:15.763Z,96847.69
2023-01-17T22:02:45.756Z,96839.81
2023-01-17T22:05:16.583Z,96848.81
2023-01-17T22:08:00.297Z,96845.88
2023-01-17T22:10:28.969Z,96849.25
2023-01-17T22:12:59.176Z,96847.16
2023-01-17T22:15:27.880Z,96846.44
2023-01-17T22:17:57.063Z,96849.19
2023-01-17T22:20:25.958Z,96854.63
2023-01-17T22:22:55.049Z,96858.19
2023-01-17T22:25:24.541Z,96854.34
2023-01-17T22:27:53.354Z,96856.50
2023-01-17T22:30:23.320Z,96859.00
2023-01-17T22:32:52.362Z,96853.81
2023-01-17T22:35:21.570Z,96861.44
2023-01-17T22:37:50.647Z,96861.91
2023-01-17T22:40:19.310Z,96864.72
2023-01-17T22:42:48.185Z,96870.84
2023-01-17T22:45:17.749Z,96878.09
2023-01-17T22:47:47.969Z,96876.63
2023-01-17T22:50:16.912Z,96868.41
2023-01-17T22:52:45.740Z,96882.41
2023-01-17T22:55:14.664Z,96879.03
2023-01-17T22:57:45.895Z,96886.09
2023-01-17T23:00:15.503Z,96883.72
2023-01-17T23:02:44.496Z,96880.53
2023-01-17T23:05:14.595Z,96892.03
2023-01-17T23:07:46.551Z,96895.50
2023-01-17T23:10:37.028Z,96899.16
2023-01-17T23:13:09.837Z,96892.28
2023-01-17T23:15:56.842Z,96897.16
2023-01-17T23:18:43.059Z,96896.00
2023-01-17T23:21:12.945Z,96904.81
2023-01-17T23:23:41.863Z,96913.06
2023-01-17T23:26:10.482Z,96905.34
2023-01-17T23:28:38.345Z,96899.16
2023-01-17T23:31:08.714Z,96892.66
2023-01-17T23:33:37.690Z,96882.59
2023-01-17T23:36:09.361Z,96886.81
2023-01-17T23:38:44.149Z,96893.44
2023-01-17T23:41:30.177Z,96900.88
2023-01-17T23:44:00.072Z,96898.03
2023-01-17T23:46:30.218Z,96907.09
2023-01-17T23:48:59.296Z,96904.03
2023-01-17T23:51:27.854Z,96905.59
2023-01-17T23:54:05.410Z,96901.13
2023-01-17T23:56:34.254Z,96899.78
2023-01-17T23:59:04.511Z,96905.44
